Log in Register

Login to your account

Username *
Password *
Remember Me

Create an account

Fields marked with an asterisk (*) are required.
Name *
Username *
Password *
Verify password *
Email *
Verify email *

METAR/TAF de Chambéry

[source: ADDS]
METAR
LFLB 170400Z AUTO 20005KT 5000 -SN BR FEW007 BKN019 OVC042 00/00 Q1021 TEMPO 1000 SN BKN009 OVC020 =
TAF AMD LFLB 170313Z 1703/1803 18008KT 3000 -SN SCT012 BKN020 TEMPO 1703/1705 1000 SN BKN009 FM170500 VRB05KT 9999 BKN040 TEMPO 1705/1714 -RA BKN009 OVC020 TEMPO 1714/1724 34010KT
TAF
TAF AMD LFLB 170313Z 1703/1803 18008KT 3000 -SN SCT012 BKN020 TEMPO 1703/1705 1000 SN BKN009 FM170500 VRB05KT 9999 BKN040 TEMPO 1705/1714 -RA BKN009 OVC020 TEMPO 1714/1724 34010KT =
SR / SS: 07:11 / 16:21 UTC (Lever/Coucher du soleil le 2021-01-17)

 

Webcam de l'Aéroclub - Parking Lima et SW (réactualisation : 5min)

Cliquer ici pour une animation sur les 3 dernières heures / Cliquer sur l'image pour l'agrandir dans une nouvelle fenêtre

 

Webcam de l'Aéroclub - Manche à air et WA (réactualisation : 5min)

Cliquer ici pour une animation sur les 3 dernières heures / Cliquer sur l'image pour l'agrandir dans une nouvelle fenêtre

 

JSN Boot template designed by JoomlaShine.com